createdAt,value
2023-03-14T00:00:46.781Z,23.97
2023-03-14T00:01:47.809Z,23.97
2023-03-14T00:02:46.852Z,23.96
2023-03-14T00:03:46.878Z,23.96
2023-03-14T00:04:46.905Z,23.96
2023-03-14T00:05:46.919Z,23.96
2023-03-14T00:06:46.968Z,23.96
2023-03-14T00:07:46.978Z,23.96
2023-03-14T00:08:47.008Z,23.96
2023-03-14T00:09:47.043Z,23.95
2023-03-14T00:10:47.046Z,23.95
2023-03-14T00:11:47.100Z,23.94
2023-03-14T00:12:47.099Z,23.95
2023-03-14T00:13:47.151Z,23.94
2023-03-14T00:14:47.147Z,23.95
2023-03-14T00:15:47.275Z,23.95
2023-03-14T00:16:47.270Z,23.94
2023-03-14T00:17:47.267Z,23.95
2023-03-14T00:18:47.282Z,23.95
2023-03-14T00:19:47.291Z,23.95
2023-03-14T00:20:47.378Z,23.96
2023-03-14T00:21:47.403Z,23.97
2023-03-14T00:22:47.402Z,23.97
2023-03-14T00:23:47.482Z,23.97
2023-03-14T00:26:47.580Z,23.97
2023-03-14T00:27:47.587Z,23.97
2023-03-14T00:28:47.613Z,23.98
2023-03-14T00:29:47.645Z,23.97
2023-03-14T00:30:47.743Z,23.98
2023-03-14T00:31:47.708Z,23.98
2023-03-14T00:32:47.798Z,23.97
2023-03-14T00:33:47.744Z,23.98
2023-03-14T00:36:47.887Z,23.97
2023-03-14T00:37:47.928Z,23.97
2023-03-14T00:38:47.921Z,23.98
2023-03-14T00:40:47.982Z,23.97
2023-03-14T00:41:48.031Z,23.97
2023-03-14T00:42:48.049Z,23.97
2023-03-14T01:54:50.239Z,23.97
2023-03-14T01:55:50.260Z,23.97
2023-03-14T01:56:50.321Z,23.97
2023-03-14T01:57:50.328Z,23.97
2023-03-14T01:58:50.337Z,23.97
2023-03-14T01:59:50.390Z,23.96
2023-03-14T02:00:50.437Z,23.96
2023-03-14T02:02:50.476Z,23.96
2023-03-14T02:03:50.536Z,23.96
2023-03-14T02:04:50.507Z,23.96
2023-03-14T02:05:50.512Z,23.97
2023-03-14T02:06:50.555Z,23.97
2023-03-14T02:07:50.569Z,23.98
2023-03-14T02:08:50.615Z,23.97
2023-03-14T02:09:50.652Z,23.97
2023-03-14T02:10:50.670Z,23.97
2023-03-14T02:11:50.728Z,23.97
2023-03-14T02:13:50.837Z,23.98
2023-03-14T02:14:50.890Z,23.98
2023-03-14T02:15:50.969Z,23.97
2023-03-14T02:16:51.039Z,23.97
2023-03-14T02:17:51.069Z,23.97
2023-03-14T02:20:51.218Z,23.97
2023-03-14T02:24:51.436Z,23.96
2023-03-14T02:25:51.493Z,23.96
2023-03-14T02:26:51.540Z,23.96
2023-03-14T02:27:51.637Z,23.97
2023-03-14T02:28:51.648Z,23.97
2023-03-14T02:29:51.681Z,23.97
2023-03-14T02:30:51.689Z,23.97
2023-03-14T02:31:51.866Z,23.97
2023-03-14T02:32:51.794Z,23.97
2023-03-14T02:33:51.828Z,23.97
2023-03-14T02:34:51.880Z,23.97
2023-03-14T02:35:51.991Z,23.97
2023-03-14T02:36:51.980Z,23.97
2023-03-14T02:37:51.987Z,23.96
2023-03-14T02:38:52.570Z,23.96
2023-03-14T02:39:52.032Z,23.96
2023-03-14T02:40:52.089Z,23.97
2023-03-14T02:41:52.067Z,23.96
2023-03-14T02:42:52.117Z,23.97
2023-03-14T02:43:52.118Z,23.98
2023-03-14T02:44:52.152Z,23.98
2023-03-14T02:45:52.231Z,23.98
2023-03-14T02:46:52.202Z,23.98
2023-03-14T02:47:52.230Z,23.98
2023-03-14T02:48:52.261Z,23.98
2023-03-14T02:49:52.244Z,23.98
2023-03-14T02:50:52.824Z,23.99
2023-03-14T02:51:52.290Z,23.99
2023-03-14T02:52:52.355Z,23.98
2023-03-14T02:53:52.350Z,23.98
2023-03-14T02:54:52.386Z,23.97
2023-03-14T02:55:52.412Z,23.97
2023-03-14T02:56:52.420Z,23.97
2023-03-14T02:57:52.434Z,23.98
2023-03-14T02:58:52.484Z,23.97
2023-03-14T02:59:52.628Z,23.97
2023-03-14T03:00:52.583Z,23.97
2023-03-14T03:01:52.540Z,23.97
2023-03-14T03:02:52.622Z,23.97
2023-03-14T03:03:52.605Z,23.97
2023-03-14T03:04:52.616Z,23.97
2023-03-14T03:05:52.631Z,23.97
2023-03-14T03:06:52.679Z,23.97
2023-03-14T03:07:52.681Z,23.97
2023-03-14T03:08:52.694Z,23.96
2023-03-14T03:09:52.716Z,23.97
2023-03-14T03:10:52.825Z,23.97
2023-03-14T03:11:52.813Z,23.96
2023-03-14T03:12:52.880Z,23.96
2023-03-14T03:13:52.933Z,23.96
2023-03-14T03:14:53.099Z,23.96
2023-03-14T03:15:53.013Z,23.95
2023-03-14T03:16:53.160Z,23.95
2023-03-14T03:17:53.133Z,23.96
2023-03-14T03:18:53.216Z,23.96
2023-03-14T03:19:53.204Z,23.96
2023-03-14T03:20:53.256Z,23.96
2023-03-14T03:21:53.308Z,23.95
2023-03-14T03:22:53.342Z,23.96
2023-03-14T03:23:53.408Z,23.95
2023-03-14T03:24:53.451Z,23.96
2023-03-14T03:25:53.490Z,23.96
2023-03-14T03:26:53.526Z,23.96
2023-03-14T03:27:53.639Z,23.97
2023-03-14T03:28:53.661Z,23.97
2023-03-14T03:29:53.755Z,23.98
2023-03-14T03:30:53.793Z,23.98
2023-03-14T03:31:53.868Z,23.99
2023-03-14T03:32:54.101Z,24.00
2023-03-14T03:33:53.963Z,24.00
2023-03-14T03:34:54.054Z,24.01
2023-03-14T03:35:54.102Z,24.03
2023-03-14T03:36:54.145Z,24.04
2023-03-14T03:37:54.229Z,24.05
2023-03-14T03:38:54.240Z,24.06
2023-03-14T03:39:54.312Z,24.07
2023-03-14T03:40:54.378Z,24.08
2023-03-14T03:41:54.466Z,24.09
2023-03-14T03:42:54.495Z,24.10
2023-03-14T03:43:54.560Z,24.11
2023-03-14T03:44:54.629Z,24.12
2023-03-14T03:45:54.712Z,24.13
2023-03-14T03:46:54.708Z,24.15
2023-03-14T03:47:54.836Z,24.16
2023-03-14T03:48:54.796Z,24.17
2023-03-14T03:49:54.854Z,24.19
2023-03-14T03:50:54.885Z,24.20
2023-03-14T03:51:54.947Z,24.22
2023-03-14T03:52:55.017Z,24.22
2023-03-14T03:53:55.020Z,24.24
2023-03-14T03:54:55.065Z,24.25
2023-03-14T03:55:55.119Z,24.25
2023-03-14T03:56:55.148Z,24.27
2023-03-14T03:57:55.163Z,24.28
2023-03-14T03:58:55.181Z,24.28
2023-03-14T03:59:55.247Z,24.29
2023-03-14T04:00:55.265Z,24.30
2023-03-14T04:01:55.320Z,24.32
2023-03-14T04:02:55.369Z,24.32
2023-03-14T04:03:55.521Z,24.34
2023-03-14T04:04:55.380Z,24.33
2023-03-14T04:05:55.436Z,24.35
2023-03-14T04:06:55.458Z,24.36
2023-03-14T04:07:55.513Z,24.37
2023-03-14T04:08:55.550Z,24.37
2023-03-14T04:09:55.534Z,24.38
2023-03-14T04:10:55.524Z,24.40
2023-03-14T04:11:55.584Z,24.39
2023-03-14T04:12:55.536Z,24.41
2023-03-14T04:13:55.574Z,24.41
2023-03-14T04:14:55.578Z,24.41
2023-03-14T04:15:55.580Z,24.42
2023-03-14T04:16:55.608Z,24.43
2023-03-14T04:17:55.586Z,24.44
2023-03-14T04:18:55.645Z,24.44
2023-03-14T04:19:55.625Z,24.45
2023-03-14T04:20:55.638Z,24.46
2023-03-14T04:21:55.639Z,24.46
2023-03-14T04:22:55.649Z,24.47
2023-03-14T04:23:55.658Z,24.48
2023-03-14T04:24:55.659Z,24.49
2023-03-14T04:25:55.666Z,24.50
2023-03-14T04:26:55.661Z,24.49
2023-03-14T04:27:55.672Z,24.49
2023-03-14T04:28:55.707Z,24.51
2023-03-14T04:29:55.716Z,24.51
2023-03-14T04:30:55.825Z,24.52
2023-03-14T04:31:55.823Z,24.52
2023-03-14T04:32:55.859Z,24.52
2023-03-14T04:33:55.859Z,24.53
2023-03-14T04:34:55.892Z,24.53
2023-03-14T04:35:55.981Z,24.54
2023-03-14T04:36:55.933Z,24.55
2023-03-14T04:37:55.916Z,24.55
2023-03-14T04:38:55.914Z,24.55
2023-03-14T04:39:55.929Z,24.56
2023-03-14T04:40:55.938Z,24.56
2023-03-14T04:41:55.943Z,24.55
2023-03-14T04:42:55.926Z,24.54
2023-03-14T04:43:55.941Z,24.55
2023-03-14T04:44:55.926Z,24.56
2023-03-14T04:45:55.913Z,24.56
2023-03-14T04:46:56.023Z,24.56
2023-03-14T04:47:55.953Z,24.56
2023-03-14T04:48:55.906Z,24.56
2023-03-14T04:49:55.923Z,24.57
2023-03-14T04:50:55.921Z,24.58
2023-03-14T04:51:55.936Z,24.57
2023-03-14T04:52:55.911Z,24.57
2023-03-14T04:53:55.927Z,24.57
2023-03-14T04:54:55.937Z,24.57
2023-03-14T04:55:55.942Z,24.57
2023-03-14T04:56:55.954Z,24.57
2023-03-14T04:57:55.903Z,24.57
2023-03-14T04:58:55.918Z,24.58
2023-03-14T04:59:55.934Z,24.58
2023-03-14T05:00:55.949Z,24.58
2023-03-14T05:01:56.013Z,24.58
2023-03-14T05:02:56.001Z,24.58
2023-03-14T05:03:55.957Z,24.58
2023-03-14T05:05:55.969Z,24.58
2023-03-14T05:14:55.962Z,24.57
2023-03-14T05:15:55.968Z,24.57
2023-03-14T05:16:55.955Z,24.57
2023-03-14T05:17:55.980Z,24.57
2023-03-14T05:18:55.946Z,24.57
2023-03-14T05:22:55.956Z,24.56
2023-03-14T05:23:55.922Z,24.56
2023-03-14T05:24:55.928Z,24.55
2023-03-14T05:25:55.907Z,24.56
2023-03-14T05:26:55.972Z,24.56
2023-03-14T05:28:55.938Z,24.55
2023-03-14T05:30:55.939Z,24.54
2023-03-14T05:31:55.987Z,24.54
2023-03-14T05:32:56.024Z,24.55
2023-03-14T05:33:55.950Z,24.54
2023-03-14T05:34:55.969Z,24.54
2023-03-14T05:35:56.012Z,24.54
2023-03-14T05:36:56.060Z,24.53
2023-03-14T05:37:56.054Z,24.53
2023-03-14T05:38:56.083Z,24.53
2023-03-14T05:39:56.141Z,24.53
2023-03-14T05:40:56.165Z,24.53
2023-03-14T05:41:56.195Z,24.53
2023-03-14T05:42:56.223Z,24.52
2023-03-14T05:43:56.246Z,24.52
2023-03-14T05:44:56.277Z,24.52
2023-03-14T05:45:56.339Z,24.53
2023-03-14T05:46:56.365Z,24.51
2023-03-14T05:47:56.387Z,24.51
2023-03-14T05:48:56.394Z,24.52
2023-03-14T05:57:56.629Z,24.51
2023-03-14T05:58:56.705Z,24.50
2023-03-14T05:59:56.723Z,24.50
2023-03-14T06:01:03.772Z,24.50
2023-03-14T06:46:04.802Z,23.87
2023-03-14T06:46:57.680Z,23.81
2023-03-14T06:47:58.037Z,23.76
2023-03-14T06:48:57.711Z,23.70
2023-03-14T06:49:57.729Z,23.65
2023-03-14T06:50:57.747Z,23.65
2023-03-14T06:51:57.773Z,23.67
2023-03-14T06:52:58.195Z,23.71
2023-03-14T06:53:57.636Z,23.75
2023-03-14T06:54:57.669Z,23.79
2023-03-14T06:55:57.696Z,23.85
2023-03-14T06:56:57.800Z,23.90
2023-03-14T06:59:57.639Z,24.05
2023-03-14T07:00:57.620Z,24.09
2023-03-14T07:01:57.617Z,24.13
2023-03-14T07:02:57.602Z,24.18
2023-03-14T07:03:57.870Z,24.20
2023-03-14T07:04:57.670Z,24.24
2023-03-14T07:05:57.577Z,24.27
2023-03-14T07:06:57.600Z,24.30
2023-03-14T07:07:57.594Z,24.34
2023-03-14T07:08:57.593Z,24.36
2023-03-14T07:09:57.654Z,24.40
2023-03-14T07:10:57.526Z,24.42
2023-03-14T07:11:57.598Z,24.45
2023-03-14T07:12:57.554Z,24.47
2023-03-14T07:13:57.549Z,24.51
2023-03-14T07:14:59.115Z,24.53
2023-03-14T07:16:57.488Z,24.57
2023-03-14T07:17:57.586Z,24.59
2023-03-14T07:18:57.507Z,24.61
2023-03-14T07:19:57.495Z,24.62
2023-03-14T07:20:57.582Z,24.63
2023-03-14T07:21:57.484Z,24.65
2023-03-14T07:22:57.505Z,24.67
2023-03-14T07:23:57.504Z,24.67
2023-03-14T07:24:57.472Z,24.68
2023-03-14T07:25:57.640Z,24.68
2023-03-14T07:26:57.448Z,24.70
2023-03-14T07:27:57.432Z,24.70
2023-03-14T07:28:57.446Z,24.71
2023-03-14T07:29:57.446Z,24.72
2023-03-14T07:30:57.524Z,24.73
2023-03-14T07:31:57.458Z,24.76
2023-03-14T07:32:57.490Z,24.78
2023-03-14T07:33:57.430Z,24.79
2023-03-14T07:34:57.422Z,24.80
2023-03-14T07:35:57.433Z,24.80
2023-03-14T07:36:58.004Z,24.81
2023-03-14T07:37:57.397Z,24.78
2023-03-14T07:38:57.419Z,24.72
2023-03-14T07:39:57.368Z,24.66
2023-03-14T07:40:57.386Z,24.58
2023-03-14T07:41:59.399Z,24.52
2023-03-14T07:42:57.390Z,24.47
2023-03-14T07:43:57.394Z,24.42
2023-03-14T07:44:57.345Z,24.37
2023-03-14T07:46:00.243Z,24.35
2023-03-14T07:46:57.367Z,24.37
2023-03-14T07:47:57.348Z,24.40
2023-03-14T07:48:57.568Z,24.43
2023-03-14T07:49:57.335Z,24.46
2023-03-14T07:50:57.364Z,24.52
2023-03-14T07:51:57.305Z,24.55
2023-03-14T07:52:57.295Z,24.58
2023-03-14T07:53:57.578Z,24.59
2023-03-14T07:54:57.265Z,24.62
2023-03-14T07:55:57.320Z,24.65
2023-03-14T07:56:57.238Z,24.67
2023-03-14T07:57:57.275Z,24.69
2023-03-14T07:58:57.268Z,24.69
2023-03-14T07:59:57.269Z,24.69
2023-03-14T08:00:57.213Z,24.68
2023-03-14T08:01:57.212Z,24.67
2023-03-14T08:02:57.248Z,24.67
2023-03-14T08:03:57.746Z,24.65
2023-03-14T08:04:57.258Z,24.64
2023-03-14T08:05:57.191Z,24.64
2023-03-14T08:06:57.203Z,24.62
2023-03-14T08:07:57.188Z,24.61
2023-03-14T08:08:57.574Z,24.60
2023-03-14T08:09:57.161Z,24.59
2023-03-14T08:10:57.179Z,24.58
2023-03-14T08:11:58.705Z,24.58
2023-03-14T08:12:57.156Z,24.59
2023-03-14T08:13:57.537Z,24.59
2023-03-14T08:14:57.144Z,24.59
2023-03-14T08:15:57.197Z,24.59
2023-03-14T08:16:57.116Z,24.59
2023-03-14T08:17:57.153Z,24.60
2023-03-14T08:18:57.138Z,24.63
2023-03-14T08:19:57.138Z,24.65
2023-03-14T08:20:57.075Z,24.67
2023-03-14T08:21:57.088Z,24.70
2023-03-14T08:22:57.091Z,24.71
2023-03-14T08:23:57.614Z,24.73
2023-03-14T08:24:57.065Z,24.74
2023-03-14T08:25:57.074Z,24.74
2023-03-14T08:26:57.086Z,24.74
2023-03-14T08:27:57.093Z,24.77
2023-03-14T08:28:57.040Z,24.80
2023-03-14T08:29:57.052Z,24.81
2023-03-14T08:30:57.039Z,24.78
2023-03-14T08:31:57.170Z,24.76
2023-03-14T08:32:57.143Z,24.74
2023-03-14T08:33:56.993Z,24.71
2023-03-14T08:34:57.148Z,24.67
2023-03-14T08:35:57.056Z,24.66
2023-03-14T08:36:57.087Z,24.64
2023-03-14T08:37:57.057Z,24.65
2023-03-14T08:38:57.088Z,24.64
2023-03-14T08:39:57.116Z,24.63
2023-03-14T08:40:57.116Z,24.62
2023-03-14T08:41:57.122Z,24.52
2023-03-14T08:42:57.144Z,24.40
2023-03-14T08:43:57.157Z,24.35
2023-03-14T08:46:57.392Z,24.11
2023-03-14T08:47:57.277Z,24.03
2023-03-14T08:48:57.341Z,23.95
2023-03-14T08:51:57.499Z,23.70
2023-03-14T08:52:57.597Z,23.60
2023-03-14T08:53:57.576Z,23.52
2023-03-14T08:55:57.620Z,23.37
2023-03-14T09:01:57.798Z,23.14
2023-03-14T09:02:57.962Z,23.09
2023-03-14T09:03:58.037Z,23.04
2023-03-14T09:04:57.977Z,23.05
2023-03-14T09:05:58.063Z,23.08
2023-03-14T09:06:58.080Z,23.12
2023-03-14T09:07:58.092Z,23.17
2023-03-14T09:08:58.100Z,23.23
2023-03-14T09:09:58.108Z,23.28
2023-03-14T09:10:58.100Z,23.34
2023-03-14T09:11:58.118Z,23.40
2023-03-14T09:12:58.175Z,23.46
2023-03-14T09:13:58.230Z,23.50
2023-03-14T09:14:58.241Z,23.55
2023-03-14T09:15:58.238Z,23.58
2023-03-14T09:16:58.366Z,23.61
2023-03-14T09:17:58.308Z,23.63
2023-03-14T09:18:58.301Z,23.66
2023-03-14T09:20:58.337Z,23.70
2023-03-14T09:21:58.325Z,23.72
2023-03-14T09:22:58.322Z,23.74
2023-03-14T09:23:58.317Z,23.75
2023-03-14T09:24:58.343Z,23.75
2023-03-14T09:26:58.549Z,23.76
2023-03-14T09:27:58.480Z,23.78
2023-03-14T09:28:58.823Z,23.79
2023-03-14T09:29:59.104Z,23.82
2023-03-14T09:30:58.649Z,23.83
2023-03-14T09:31:58.778Z,23.82
2023-03-14T09:32:58.802Z,23.81
2023-03-14T09:34:59.108Z,23.82
2023-03-14T09:35:58.894Z,23.83
2023-03-14T09:36:58.902Z,23.84
2023-03-14T09:37:58.955Z,23.85
2023-03-14T09:38:58.952Z,23.85
2023-03-14T09:39:59.012Z,23.85
2023-03-14T09:40:59.062Z,23.86
2023-03-14T09:41:59.147Z,23.88
2023-03-14T09:42:59.156Z,23.90
2023-03-14T09:44:59.612Z,23.94
2023-03-14T09:45:59.281Z,23.95
2023-03-14T09:46:59.281Z,23.98
2023-03-14T09:51:59.547Z,24.12
2023-03-14T09:52:59.661Z,24.16
2023-03-14T09:53:59.690Z,24.22
2023-03-14T09:54:59.729Z,24.27
2023-03-14T09:55:59.835Z,24.32
2023-03-14T09:56:59.859Z,24.37
2023-03-14T09:57:59.851Z,24.41
2023-03-14T09:58:59.897Z,24.46
2023-03-14T09:59:59.969Z,24.50
2023-03-14T10:01:00.177Z,24.54
2023-03-14T10:03:00.053Z,24.62
2023-03-14T10:04:00.158Z,24.64
2023-03-14T10:05:00.093Z,24.67
2023-03-14T10:06:00.142Z,24.70
2023-03-14T10:07:00.168Z,24.72
2023-03-14T10:08:00.171Z,24.74
2023-03-14T10:09:00.194Z,24.75
2023-03-14T10:10:00.190Z,24.77
2023-03-14T10:11:00.384Z,24.78
2023-03-14T10:12:02.161Z,24.81
2023-03-14T10:26:00.599Z,25.04
2023-03-14T10:27:00.330Z,25.05
2023-03-14T10:28:00.362Z,25.06
2023-03-14T10:29:00.454Z,25.07
2023-03-14T10:31:00.993Z,25.09
2023-03-14T10:32:00.609Z,25.11
2023-03-14T10:34:00.656Z,25.14
2023-03-14T10:35:00.725Z,25.14
2023-03-14T10:36:00.858Z,25.16
2023-03-14T10:37:00.883Z,25.17
2023-03-14T10:38:00.928Z,25.18
2023-03-14T10:39:01.578Z,25.20
2023-03-14T10:40:00.963Z,25.21
2023-03-14T10:41:01.121Z,25.21
2023-03-14T10:42:01.096Z,25.21
2023-03-14T10:44:01.095Z,25.21
2023-03-14T10:45:01.114Z,25.22
2023-03-14T10:46:01.283Z,25.22
2023-03-14T10:47:01.134Z,25.21
2023-03-14T10:48:01.130Z,25.21
2023-03-14T10:49:01.127Z,25.20
2023-03-14T10:50:01.146Z,25.21
2023-03-14T10:51:01.259Z,25.19
2023-03-14T10:52:01.261Z,25.18
2023-03-14T10:53:03.060Z,25.17
2023-03-14T10:54:01.389Z,25.17
2023-03-14T10:55:01.429Z,25.16
2023-03-14T10:56:01.514Z,25.15
2023-03-14T10:57:01.641Z,25.15
2023-03-14T10:58:01.609Z,25.13
2023-03-14T10:59:01.628Z,25.13
2023-03-14T11:00:01.682Z,25.13
2023-03-14T11:01:02.180Z,25.13
2023-03-14T11:02:01.773Z,25.12
2023-03-14T11:03:01.842Z,25.11
2023-03-14T11:04:01.900Z,25.10
2023-03-14T11:05:02.018Z,25.10
2023-03-14T11:06:02.185Z,25.09
2023-03-14T11:07:02.073Z,25.09
2023-03-14T11:08:02.121Z,25.09
2023-03-14T11:09:02.190Z,25.08
2023-03-14T11:10:02.246Z,25.08
2023-03-14T11:11:02.309Z,25.08
2023-03-14T11:12:02.371Z,25.08
2023-03-14T11:13:02.422Z,25.08
2023-03-14T11:14:02.480Z,25.08
2023-03-14T11:15:02.535Z,25.07
2023-03-14T11:16:02.740Z,25.07
2023-03-14T11:17:02.588Z,25.06
2023-03-14T11:18:02.624Z,25.05
2023-03-14T11:19:02.643Z,25.05
2023-03-14T11:20:02.679Z,25.06
2023-03-14T11:21:02.738Z,25.06
2023-03-14T11:22:02.778Z,25.06
2023-03-14T11:23:02.752Z,25.05
2023-03-14T11:24:02.784Z,25.05
2023-03-14T11:25:02.817Z,25.05
2023-03-14T11:26:02.790Z,25.06
2023-03-14T11:27:02.840Z,25.06
2023-03-14T11:28:02.831Z,25.05
2023-03-14T11:29:02.903Z,25.05
2023-03-14T11:30:02.895Z,25.05
2023-03-14T11:31:03.257Z,25.05
2023-03-14T11:32:02.902Z,25.04
2023-03-14T11:33:02.990Z,25.04
2023-03-14T11:34:02.934Z,25.03
2023-03-14T11:35:02.954Z,24.93
2023-03-14T11:36:03.641Z,24.88
2023-03-14T11:37:03.164Z,24.83
2023-03-14T11:38:03.025Z,24.79
2023-03-14T11:39:03.268Z,24.78
2023-03-14T11:40:03.063Z,24.78
2023-03-14T11:41:03.135Z,24.78
2023-03-14T11:42:04.752Z,24.78
2023-03-14T11:43:03.252Z,24.80
2023-03-14T11:44:03.251Z,24.83
2023-03-14T11:45:03.283Z,24.87
2023-03-14T11:46:03.319Z,24.91
2023-03-14T11:47:03.400Z,24.94
2023-03-14T11:48:03.352Z,24.99
2023-03-14T11:49:03.402Z,25.02
2023-03-14T11:50:03.415Z,25.06
2023-03-14T11:51:03.524Z,25.08
2023-03-14T11:52:03.417Z,25.11
2023-03-14T11:53:04.002Z,25.14
2023-03-14T11:54:03.434Z,25.17
2023-03-14T11:55:03.441Z,25.19
2023-03-14T11:56:03.923Z,25.21
2023-03-14T11:57:03.478Z,25.22
2023-03-14T11:58:03.571Z,25.23
2023-03-14T11:59:04.188Z,25.23
2023-03-14T12:00:03.697Z,25.25
2023-03-14T12:01:03.674Z,25.27
2023-03-14T12:02:03.932Z,25.28
2023-03-14T12:03:03.773Z,25.29
2023-03-14T12:04:03.817Z,25.30
2023-03-14T12:05:03.794Z,25.31
2023-03-14T12:06:03.813Z,25.31
2023-03-14T12:07:03.767Z,25.31
2023-03-14T12:08:03.790Z,25.32
2023-03-14T12:09:03.797Z,25.31
2023-03-14T12:10:03.803Z,25.32
2023-03-14T12:11:03.800Z,25.32
2023-03-14T12:12:03.796Z,25.32
2023-03-14T12:13:03.763Z,25.34
2023-03-14T12:14:03.775Z,25.34
2023-03-14T12:15:03.777Z,25.34
2023-03-14T12:16:03.849Z,25.36
2023-03-14T12:17:04.159Z,25.35
2023-03-14T12:18:03.807Z,25.36
2023-03-14T12:19:03.793Z,25.36
2023-03-14T12:20:03.812Z,25.36
2023-03-14T12:21:03.815Z,25.37
2023-03-14T12:22:03.772Z,25.37
2023-03-14T12:23:03.775Z,25.37
2023-03-14T12:24:03.792Z,25.38
2023-03-14T12:25:03.761Z,25.39
2023-03-14T12:26:03.802Z,25.40
2023-03-14T12:27:04.136Z,25.40
2023-03-14T12:28:03.811Z,25.42
2023-03-14T12:29:03.970Z,25.42
2023-03-14T12:30:04.854Z,25.42
2023-03-14T12:31:03.985Z,25.42
2023-03-14T12:32:04.199Z,25.42
2023-03-14T12:33:04.132Z,25.41
2023-03-14T12:34:04.119Z,25.41
2023-03-14T12:35:04.133Z,25.41
2023-03-14T12:36:04.179Z,25.40
2023-03-14T12:37:04.131Z,25.39
2023-03-14T12:38:04.114Z,25.38
2023-03-14T12:39:04.112Z,25.37
2023-03-14T12:40:06.668Z,25.35
2023-03-14T12:41:04.092Z,25.34
2023-03-14T12:42:04.112Z,25.34
2023-03-14T12:43:04.077Z,25.33
2023-03-14T12:44:04.077Z,25.31
2023-03-14T12:45:04.335Z,25.31
2023-03-14T12:46:04.108Z,25.30
2023-03-14T12:47:04.100Z,25.29
2023-03-14T12:48:04.645Z,25.29
2023-03-14T12:49:04.065Z,25.28
2023-03-14T12:50:04.074Z,25.27
2023-03-14T12:51:04.088Z,25.26
2023-03-14T12:52:04.028Z,25.25
2023-03-14T12:53:04.052Z,25.24
2023-03-14T12:54:04.006Z,25.24
2023-03-14T12:55:04.069Z,25.24
2023-03-14T12:56:03.989Z,25.24
2023-03-14T12:57:03.996Z,25.25
2023-03-14T12:58:04.016Z,25.23
2023-03-14T12:59:03.976Z,25.22
2023-03-14T13:00:03.991Z,25.22
2023-03-14T13:01:04.004Z,25.21
2023-03-14T13:02:03.975Z,25.19
2023-03-14T13:03:03.964Z,25.17
2023-03-14T13:04:04.045Z,25.15
2023-03-14T13:05:03.974Z,25.14
2023-03-14T13:06:03.959Z,25.13
2023-03-14T13:07:03.927Z,25.11
2023-03-14T13:08:03.938Z,25.10
2023-03-14T13:09:03.949Z,25.09
2023-03-14T13:10:03.939Z,25.09
2023-03-14T13:11:03.926Z,25.08
2023-03-14T13:12:03.906Z,25.07
2023-03-14T13:13:03.949Z,25.07
2023-03-14T13:14:03.875Z,25.08
2023-03-14T13:15:03.879Z,25.07
2023-03-14T13:16:03.886Z,25.07
2023-03-14T13:17:19.285Z,25.07
2023-03-14T13:18:04.863Z,25.06
2023-03-14T13:19:03.849Z,25.05
2023-03-14T13:20:03.870Z,25.06
2023-03-14T13:21:03.882Z,25.05
2023-03-14T13:22:03.825Z,25.06
2023-03-14T13:23:03.911Z,25.05
2023-03-14T13:24:03.812Z,25.06
2023-03-14T13:25:03.858Z,25.05
2023-03-14T13:26:03.824Z,25.05
2023-03-14T13:27:03.797Z,25.05
2023-03-14T13:28:03.887Z,25.05
2023-03-14T13:29:03.921Z,25.05
2023-03-14T13:30:03.959Z,25.05
2023-03-14T13:31:04.028Z,25.05
2023-03-14T13:32:04.006Z,25.05
2023-03-14T13:33:04.064Z,25.07
2023-03-14T13:34:04.066Z,25.07
2023-03-14T13:35:04.031Z,25.08
2023-03-14T13:36:04.052Z,25.10
2023-03-14T13:37:04.036Z,25.12
2023-03-14T13:38:11.594Z,25.15
2023-03-14T13:39:05.051Z,25.16
2023-03-14T13:40:04.136Z,25.18
2023-03-14T13:41:04.037Z,25.19
2023-03-14T13:42:04.138Z,25.19
2023-03-14T13:43:04.032Z,25.23
2023-03-14T13:44:03.992Z,25.25
2023-03-14T13:45:04.005Z,25.26
2023-03-14T13:46:04.077Z,25.28
2023-03-14T13:47:03.965Z,25.30
2023-03-14T13:48:03.962Z,25.31
2023-03-14T13:49:03.970Z,25.33
2023-03-14T13:50:03.978Z,25.33
2023-03-14T13:51:03.969Z,25.33
2023-03-14T13:52:04.707Z,25.34
2023-03-14T13:53:03.967Z,25.35
2023-03-14T13:54:03.949Z,25.35
2023-03-14T13:55:03.908Z,25.36
2023-03-14T13:56:03.953Z,25.36
2023-03-14T13:57:03.909Z,25.36
2023-03-14T13:58:03.934Z,25.37
2023-03-14T13:59:03.932Z,25.37
2023-03-14T14:00:03.887Z,25.37
2023-03-14T14:01:03.956Z,25.37
2023-03-14T14:02:03.920Z,25.37
2023-03-14T14:03:03.845Z,25.36
2023-03-14T14:04:03.859Z,25.36
2023-03-14T14:05:03.918Z,25.35
2023-03-14T14:06:04.199Z,25.36
2023-03-14T14:07:03.857Z,25.36
2023-03-14T14:08:03.849Z,25.36
2023-03-14T14:09:03.805Z,25.35
2023-03-14T14:10:03.792Z,25.36
2023-03-14T14:11:03.826Z,25.35
2023-03-14T14:12:15.381Z,25.36
2023-03-14T14:13:04.793Z,25.39
2023-03-14T14:14:03.813Z,25.40
2023-03-14T14:15:03.799Z,25.40
2023-03-14T14:16:03.860Z,25.42
2023-03-14T14:17:03.794Z,25.42
2023-03-14T14:18:03.745Z,25.44
2023-03-14T14:19:03.815Z,25.44
2023-03-14T14:20:03.770Z,25.43
2023-03-14T14:21:03.774Z,25.44
2023-03-14T14:22:04.248Z,25.44
2023-03-14T14:23:03.752Z,25.45
2023-03-14T14:24:03.750Z,25.45
2023-03-14T14:25:03.762Z,25.45
2023-03-14T14:26:03.723Z,25.44
2023-03-14T14:27:03.693Z,25.44
2023-03-14T14:28:03.748Z,25.43
2023-03-14T14:29:03.785Z,25.43
2023-03-14T14:30:03.909Z,25.43
2023-03-14T14:31:03.927Z,25.44
2023-03-14T14:32:03.986Z,25.43
2023-03-14T14:33:03.952Z,25.41
2023-03-14T14:34:03.958Z,25.42
2023-03-14T14:35:03.954Z,25.41
2023-03-14T14:36:04.069Z,25.42
2023-03-14T14:37:04.059Z,25.41
2023-03-14T14:38:04.087Z,25.42
2023-03-14T14:39:04.105Z,25.43
2023-03-14T14:40:04.129Z,25.43
2023-03-14T14:41:04.218Z,25.43
2023-03-14T14:42:04.230Z,25.42
2023-03-14T14:43:04.237Z,25.42
2023-03-14T14:44:04.325Z,25.41
2023-03-14T14:45:04.365Z,25.40
2023-03-14T14:46:04.410Z,25.39
2023-03-14T14:47:04.383Z,25.38
2023-03-14T14:48:04.430Z,25.38
2023-03-14T14:49:04.453Z,25.37
2023-03-14T14:50:04.489Z,25.37
2023-03-14T14:51:04.551Z,25.36
2023-03-14T14:52:04.567Z,25.35
2023-03-14T14:53:04.631Z,25.34
2023-03-14T14:54:04.640Z,25.34
2023-03-14T14:55:04.666Z,25.33
2023-03-14T14:56:04.752Z,25.33
2023-03-14T14:57:04.810Z,25.31
2023-03-14T14:58:04.786Z,25.31
2023-03-14T14:59:04.849Z,25.31
2023-03-14T15:00:05.111Z,25.31
2023-03-14T15:01:04.937Z,25.31
2023-03-14T15:02:05.072Z,25.31
2023-03-14T15:03:05.057Z,25.31
2023-03-14T15:04:05.056Z,25.30
2023-03-14T15:05:05.090Z,25.30
2023-03-14T15:06:05.116Z,25.29
2023-03-14T15:07:05.203Z,25.28
2023-03-14T15:08:05.178Z,25.28
2023-03-14T15:09:05.195Z,25.27
2023-03-14T15:10:05.347Z,25.27
2023-03-14T15:11:05.310Z,25.26
2023-03-14T15:12:05.293Z,25.25
2023-03-14T15:13:05.357Z,25.25
2023-03-14T15:14:05.377Z,25.24
2023-03-14T15:15:05.387Z,25.24
2023-03-14T15:16:05.426Z,25.25
2023-03-14T15:17:05.389Z,25.25
2023-03-14T15:18:05.384Z,25.24
2023-03-14T15:19:18.008Z,25.24
2023-03-14T15:20:06.420Z,25.24
2023-03-14T15:21:05.370Z,25.24
2023-03-14T15:22:05.333Z,25.23
2023-03-14T15:23:05.379Z,25.23
2023-03-14T15:24:05.387Z,25.23
2023-03-14T15:25:05.357Z,25.22
2023-03-14T15:26:05.308Z,25.23
2023-03-14T15:27:05.296Z,25.23
2023-03-14T15:28:05.324Z,25.22
2023-03-14T15:29:05.335Z,25.22
2023-03-14T15:30:05.306Z,25.22
2023-03-14T15:31:05.328Z,25.22
2023-03-14T15:32:05.445Z,25.22
2023-03-14T15:33:05.434Z,25.21
2023-03-14T15:34:05.315Z,25.20
2023-03-14T15:35:05.293Z,25.20
2023-03-14T15:36:05.329Z,25.19
2023-03-14T15:37:05.252Z,25.20
2023-03-14T15:38:05.240Z,25.19
2023-03-14T15:39:05.264Z,25.19
2023-03-14T15:40:05.237Z,25.19
2023-03-14T15:41:05.267Z,25.19
2023-03-14T15:42:05.332Z,25.19
2023-03-14T15:43:05.345Z,25.19
2023-03-14T15:44:05.421Z,25.20
2023-03-14T15:45:05.482Z,25.19
2023-03-14T15:46:05.544Z,25.19
2023-03-14T15:47:05.566Z,25.18
2023-03-14T15:48:05.590Z,25.18
2023-03-14T15:49:05.682Z,25.18
2023-03-14T15:50:05.719Z,25.18
2023-03-14T15:51:05.744Z,25.17
2023-03-14T15:52:05.761Z,25.18
2023-03-14T15:53:05.719Z,25.17
2023-03-14T15:54:05.729Z,25.18
2023-03-14T15:55:05.718Z,25.17
2023-03-14T15:56:05.724Z,25.17
2023-03-14T15:57:05.742Z,25.17
2023-03-14T15:58:05.768Z,25.17
2023-03-14T15:59:05.808Z,25.17
2023-03-14T16:00:05.901Z,25.18